Time;durP1;ratioP1;P1;durP2;ratioP2;P2;SDS_P1;SDS_P2;PMS_P1;PMS_P2;Temp;Humidity;BMP_temperature;BMP_pressure;BME280_temperature;BME280_humidity;BME280_pressure;Samples;Min_cycle;Max_cycle;Signal;HPM_P1;HPM_P2
2021/07/04 00:02:20;;;;;;;6.05;2.05;;;;;;;16.22;95.14;93953.95;1705639;83;21481;-59
2021/07/04 00:04:46;;;;;;;3.00;2.10;;;;;;;16.22;95.15;93958.73;1708769;83;20988;-59
2021/07/04 00:07:13;;;;;;;2.33;1.98;;;;;;;16.19;95.22;93954.96;1708204;83;21041;-60
2021/07/04 00:09:40;;;;;;;1.95;1.82;;;;;;;16.19;95.26;93956.34;1709616;83;21008;-60
2021/07/04 00:12:08;;;;;;;3.50;2.55;;;;;;;16.20;95.05;93960.64;1703633;81;21035;-59
2021/07/04 00:14:35;;;;;;;2.40;2.17;;;;;;;16.21;94.95;93960.77;1705286;82;21504;-57
2021/07/04 00:17:04;;;;;;;3.95;2.45;;;;;;;16.21;95.23;93957.98;1710118;83;20979;-57
2021/07/04 00:19:31;;;;;;;4.28;2.85;;;;;;;16.26;95.37;93952.33;1707051;82;21071;-58
2021/07/04 00:21:57;;;;;;;4.22;2.08;;;;;;;16.29;95.06;93950.67;1703865;83;21140;-60
2021/07/04 00:24:24;;;;;;;2.30;2.10;;;;;;;16.30;94.92;93948.02;1714814;82;21133;-58
2021/07/04 00:26:50;;;;;;;3.25;2.12;;;;;;;16.34;95.14;93947.17;1720066;82;21079;-58
2021/07/04 00:29:17;;;;;;;4.42;2.67;;;;;;;16.35;94.82;93947.32;1708599;82;20983;-58
2021/07/04 00:31:44;;;;;;;4.30;2.45;;;;;;;16.32;94.55;93939.95;1699479;83;20970;-58
2021/07/04 00:34:10;;;;;;;2.62;2.37;;;;;;;16.28;94.42;93944.25;1707291;82;21136;-58
2021/07/04 00:36:37;;;;;;;5.33;2.02;;;;;;;16.22;94.45;93940.69;1698420;82;20984;-59
2021/07/04 00:39:04;;;;;;;7.10;2.02;;;;;;;16.20;94.65;93942.59;1708607;82;21023;-58
2021/07/04 00:41:31;;;;;;;2.37;1.80;;;;;;;16.19;94.62;93939.70;1705164;82;21605;-58
2021/07/04 00:44:00;;;;;;;2.67;1.98;;;;;;;16.20;94.62;93937.05;1713681;83;21059;-60
2021/07/04 00:46:30;;;;;;;6.78;2.33;;;;;;;16.22;94.66;93934.52;1703073;83;21122;-59
2021/07/04 00:48:55;;;;;;;4.83;2.72;;;;;;;16.23;94.83;93934.65;1708385;83;21051;-59
2021/07/04 00:51:22;;;;;;;9.60;2.20;;;;;;;16.20;94.69;93938.44;1707596;84;21048;-60
2021/07/04 00:53:49;;;;;;;2.90;1.82;;;;;;;16.18;94.98;93942.96;1705164;83;21122;-58
2021/07/04 00:56:18;;;;;;;4.75;2.83;;;;;;;16.17;95.18;93935.28;1705353;82;21009;-59
2021/07/04 00:58:45;;;;;;;1.87;1.72;;;;;;;16.15;95.23;93935.03;1710832;83;21134;-60
2021/07/04 01:01:13;;;;;;;5.30;2.08;;;;;;;16.12;95.43;93943.59;1707360;83;21547;-59
2021/07/04 01:03:39;;;;;;;4.08;2.00;;;;;;;16.11;95.68;93942.08;1707779;84;21064;-60
2021/07/04 01:06:06;;;;;;;6.62;1.75;;;;;;;16.11;95.84;93942.08;1702920;83;21027;-60
2021/07/04 01:08:33;;;;;;;1.82;1.72;;;;;;;16.13;96.15;93943.07;1704735;83;21069;-60
2021/07/04 01:11:04;;;;;;;2.52;1.98;;;;;;;16.20;96.49;93942.59;1682777;83;21162;-60
2021/07/04 01:13:34;;;;;;;5.67;1.95;;;;;;;16.24;96.03;93944.48;1704087;83;20956;-60
2021/07/04 01:16:05;;;;;;;3.42;1.90;;;;;;;16.25;95.77;93939.70;1715505;82;21122;-57
2021/07/04 01:18:32;;;;;;;4.03;1.82;;;;;;;16.23;95.64;93940.20;1707018;82;20995;-58
2021/07/04 01:21:03;;;;;;;5.45;2.30;;;;;;;16.24;95.54;93940.97;1716570;82;21082;-59
2021/07/04 01:23:30;;;;;;;3.83;2.02;;;;;;;16.25;95.63;93943.23;1707292;83;21134;-60
2021/07/04 01:25:57;;;;;;;3.00;1.80;;;;;;;16.28;95.98;93942.98;1706080;82;20976;-59
2021/07/04 01:28:26;;;;;;;2.22;1.77;;;;;;;16.33;95.80;93937.33;1702389;82;20971;-58
2021/07/04 01:31:02;;;;;;;2.35;2.15;;;;;;;16.39;95.74;93933.94;1662725;84;20990;-59
2021/07/04 01:33:28;;;;;;;1.75;1.62;;;;;;;16.44;95.35;93937.34;1707868;84;20976;-59
2021/07/04 01:35:55;;;;;;;4.80;1.90;;;;;;;16.48;95.08;93937.23;1700922;83;21254;-58
2021/07/04 01:38:23;;;;;;;2.42;2.00;;;;;;;16.48;94.66;93933.68;1707562;82;21020;-59
2021/07/04 01:40:50;;;;;;;3.98;2.30;;;;;;;16.45;94.36;93937.47;1707996;83;21071;-58
2021/07/04 01:43:17;;;;;;;2.45;2.00;;;;;;;16.37;94.18;93932.30;1688370;83;21010;-60
2021/07/04 01:45:45;;;;;;;5.55;2.02;;;;;;;16.30;94.38;93928.59;1710819;82;21093;-58
2021/07/04 01:48:13;;;;;;;2.65;2.17;;;;;;;16.29;94.70;93931.24;1703324;83;21084;-59
2021/07/04 01:50:46;;;;;;;2.17;2.05;;;;;;;16.31;94.49;93929.48;1705217;82;21080;-59
2021/07/04 01:53:15;;;;;;;3.35;2.10;;;;;;;16.28;94.06;93929.11;1703823;83;21035;-59
2021/07/04 01:55:44;;;;;;;4.15;2.40;;;;;;;16.26;94.27;93932.90;1707849;83;21030;-57
2021/07/04 01:58:11;;;;;;;3.30;2.20;;;;;;;16.21;94.45;93937.17;1713965;83;21087;-59
2021/07/04 02:00:42;;;;;;;2.70;2.20;;;;;;;16.19;94.59;93934.14;1708449;83;21273;-59
2021/07/04 02:03:10;;;;;;;6.87;3.12;;;;;;;16.17;94.68;93929.73;1701220;82;21085;-59
2021/07/04 02:05:39;;;;;;;6.58;3.67;;;;;;;16.10;94.93;93930.85;1699878;82;21070;-57
2021/07/04 02:08:08;;;;;;;7.53;3.72;;;;;;;16.09;95.39;93926.56;1706369;82;21043;-58
2021/07/04 02:10:38;;;;;;;6.85;3.47;;;;;;;16.09;95.67;93923.14;1707125;82;21071;-59
2021/07/04 02:13:09;;;;;;;4.00;3.05;;;;;;;16.10;95.68;93930.20;1715467;82;21467;-59
2021/07/04 02:15:39;;;;;;;4.25;2.75;;;;;;;16.10;95.85;93928.82;1709147;83;21475;-59
2021/07/04 02:18:17;;;;;;;4.20;2.58;;;;;;;16.14;95.90;93929.35;1699369;82;20976;-58
2021/07/04 02:20:51;;;;;;;9.25;2.60;;;;;;;16.16;95.85;93926.06;1708723;83;20983;-58
2021/07/04 02:23:30;;;;;;;2.30;2.05;;;;;;;16.19;96.04;93928.59;1706170;81;21015;-58
2021/07/04 02:26:15;;;;;;;2.50;2.12;;;;;;;16.23;95.76;93931.88;1717115;82;21187;-59
2021/07/04 02:28:44;;;;;;;3.65;2.05;;;;;;;16.24;95.54;93936.16;1705726;82;21023;-58
2021/07/04 02:31:18;;;;;;;4.17;2.17;;;;;;;16.23;95.56;93933.87;1705424;82;21054;-58
2021/07/04 02:33:45;;;;;;;3.00;2.70;;;;;;;16.23;95.65;93931.10;1664623;82;21457;-58
2021/07/04 02:36:14;;;;;;;3.65;1.90;;;;;;;16.23;95.46;93933.27;1700895;82;21015;-58
2021/07/04 02:38:42;;;;;;;2.72;2.20;;;;;;;16.23;95.40;93937.42;1711021;82;21073;-59
2021/07/04 02:41:10;;;;;;;2.42;2.22;;;;;;;16.23;95.59;93927.71;1714457;83;21055;-59
2021/07/04 02:43:37;;;;;;;4.05;2.50;;;;;;;16.22;95.35;93926.20;1704430;83;21112;-58
2021/07/04 02:46:07;;;;;;;3.10;2.55;;;;;;;16.24;95.62;93929.22;1694458;82;21029;-58
2021/07/04 02:48:34;;;;;;;2.95;2.08;;;;;;;16.26;95.52;93935.67;1706073;82;21000;-58
2021/07/04 02:51:02;;;;;;;3.05;2.30;;;;;;;16.30;95.38;93934.14;1700075;82;20998;-59
2021/07/04 02:53:30;;;;;;;11.95;2.75;;;;;;;16.29;95.09;93926.46;1714485;82;21078;-59
2021/07/04 02:55:59;;;;;;;2.80;2.60;;;;;;;16.27;95.29;93926.83;1699776;82;21030;-58
2021/07/04 02:58:27;;;;;;;3.08;2.50;;;;;;;16.25;95.15;93930.73;1699536;82;21058;-59
2021/07/04 03:00:55;;;;;;;3.55;2.58;;;;;;;16.21;94.99;93929.47;1704552;82;21023;-60
2021/07/04 03:03:22;;;;;;;2.20;2.05;;;;;;;16.18;95.27;93930.47;1714123;82;21124;-59
2021/07/04 03:05:49;;;;;;;5.20;2.50;;;;;;;16.20;95.51;93935.66;1697459;82;21323;-58
2021/07/04 03:08:16;;;;;;;2.45;2.25;;;;;;;16.21;95.57;93933.63;1707029;82;20980;-59
2021/07/04 03:10:45;;;;;;;4.72;2.83;;;;;;;16.21;95.71;93932.23;1703459;82;21106;-59
2021/07/04 03:13:13;;;;;;;2.90;2.70;;;;;;;16.22;96.07;93931.75;1709748;82;21083;-58
2021/07/04 03:15:41;;;;;;;6.00;2.20;;;;;;;16.28;96.12;93931.11;1704868;82;21090;-59
2021/07/04 03:18:08;;;;;;;2.50;2.30;;;;;;;16.33;95.89;93933.16;1703488;82;21070;-58
2021/07/04 03:20:37;;;;;;;4.75;2.42;;;;;;;16.34;95.62;93931.90;1711257;83;20980;-59
2021/07/04 03:23:05;;;;;;;2.83;2.33;;;;;;;16.38;95.64;93936.59;1706646;83;21483;-58
2021/07/04 03:25:32;;;;;;;5.80;2.27;;;;;;;16.35;95.13;93936.95;1705912;83;21048;-59
2021/07/04 03:28:01;;;;;;;4.17;2.40;;;;;;;16.33;95.18;93935.94;1705900;81;21108;-59
2021/07/04 03:30:28;;;;;;;3.92;2.12;;;;;;;16.33;95.17;93935.94;1703172;83;21020;-58
2021/07/04 03:32:55;;;;;;;6.67;2.62;;;;;;;16.30;95.22;93941.85;1707647;84;20980;-58
2021/07/04 03:35:24;;;;;;;4.40;2.42;;;;;;;16.29;95.16;93952.06;1701799;82;21493;-58
2021/07/04 03:37:54;;;;;;;5.30;2.40;;;;;;;16.27;95.27;93954.58;1711135;82;21202;-59
2021/07/04 03:40:21;;;;;;;5.00;2.70;;;;;;;16.28;95.40;93962.30;1717357;83;21103;-58
2021/07/04 03:42:50;;;;;;;8.48;3.70;;;;;;;16.31;95.55;93960.64;1708453;83;21066;-58
2021/07/04 03:45:19;;;;;;;4.17;3.40;;;;;;;16.35;95.54;93963.98;1709337;83;21115;-58
2021/07/04 03:47:47;;;;;;;5.75;3.60;;;;;;;16.34;95.14;93961.81;1709766;83;21033;-58
2021/07/04 03:50:15;;;;;;;6.40;3.00;;;;;;;16.32;94.99;93964.92;1694509;82;21726;-59
2021/07/04 03:52:45;;;;;;;2.85;2.50;;;;;;;16.33;95.12;93966.47;1705566;82;21320;-59
2021/07/04 03:55:14;;;;;;;5.40;2.70;;;;;;;16.36;94.88;93959.94;1706183;83;21007;-58
2021/07/04 03:57:43;;;;;;;4.33;2.80;;;;;;;16.40;94.44;93956.28;1706699;82;21075;-59
2021/07/04 04:00:15;;;;;;;4.55;3.05;;;;;;;16.37;94.28;93958.67;1710404;83;21090;-60
2021/07/04 04:02:46;;;;;;;8.18;2.80;;;;;;;16.36;94.22;93954.39;1705424;83;21600;-59
2021/07/04 04:05:15;;;;;;;3.58;2.67;;;;;;;16.33;94.32;93958.14;1697356;82;22012;-57
2021/07/04 04:07:45;;;;;;;6.60;3.55;;;;;;;16.37;94.45;93958.67;1706094;83;20972;-60
2021/07/04 04:10:13;;;;;;;7.58;3.72;;;;;;;16.40;94.63;93961.19;1702721;82;21022;-58
2021/07/04 04:12:42;;;;;;;8.30;4.12;;;;;;;16.43;94.80;93960.81;1707128;81;21683;-60
2021/07/04 04:15:12;;;;;;;4.85;3.50;;;;;;;16.48;94.91;93960.05;1704576;82;21119;-60
2021/07/04 04:17:41;;;;;;;3.83;2.98;;;;;;;16.56;95.24;93961.09;1701673;83;21079;-59
2021/07/04 04:20:11;;;;;;;7.72;5.53;;;;;;;16.65;95.01;93962.22;1710903;82;21066;-59
2021/07/04 04:22:39;;;;;;;21.57;15.50;;;;;;;16.73;94.86;93954.91;1707066;83;21100;-58
2021/07/04 04:25:09;;;;;;;15.18;11.75;;;;;;;16.81;94.50;93955.91;1701873;82;21038;-59
2021/07/04 04:27:40;;;;;;;16.77;11.97;;;;;;;16.91;93.96;93950.23;1699124;82;21460;-58
2021/07/04 04:30:10;;;;;;;12.50;9.93;;;;;;;17.00;93.50;93949.95;1698497;82;21145;-58
2021/07/04 04:32:40;;;;;;;6.67;5.58;;;;;;;17.06;92.75;93944.52;1683366;83;38771;-58
2021/07/04 04:35:09;;;;;;;9.25;7.50;;;;;;;17.13;92.64;93948.80;1707633;83;20984;-57
2021/07/04 04:37:38;;;;;;;4.67;3.55;;;;;;;17.19;92.57;93943.98;1701543;82;21092;-57
2021/07/04 04:40:08;;;;;;;3.42;2.83;;;;;;;17.26;92.25;93942.83;1702792;82;21017;-59
2021/07/04 04:42:35;;;;;;;5.17;1.92;;;;;;;17.31;91.68;93941.30;1685897;84;21086;-59
2021/07/04 04:45:02;;;;;;;3.27;2.25;;;;;;;17.36;90.87;93942.72;1707613;83;21484;-58
2021/07/04 04:47:30;;;;;;;2.10;1.90;;;;;;;17.41;90.72;93933.59;1699030;82;20993;-59
2021/07/04 04:49:57;;;;;;;3.22;2.40;;;;;;;17.53;91.02;93942.66;1703370;83;21085;-58
2021/07/04 04:52:25;;;;;;;2.92;2.30;;;;;;;17.62;90.75;93934.78;1694275;82;21143;-58
2021/07/04 04:54:55;;;;;;;3.98;3.42;;;;;;;17.69;90.58;93946.02;1718303;83;21149;-59
2021/07/04 04:57:23;;;;;;;3.42;3.12;;;;;;;17.74;89.95;93951.56;1709423;83;21075;-58
2021/07/04 04:59:49;;;;;;;1.92;1.60;;;;;;;17.83;89.58;93943.55;1714125;83;21666;-60
2021/07/04 05:02:17;;;;;;;2.22;1.87;;;;;;;17.90;88.49;93945.78;1707596;83;21036;-59
2021/07/04 05:04:44;;;;;;;1.70;1.60;;;;;;;17.91;87.75;93943.89;1707778;84;21520;-58
2021/07/04 05:07:12;;;;;;;1.95;1.62;;;;;;;17.90;87.13;93952.13;1700851;82;21553;-59
2021/07/04 05:09:39;;;;;;;2.00;1.80;;;;;;;17.90;86.71;93947.18;1704037;83;21483;-58
2021/07/04 05:12:06;;;;;;;1.85;1.70;;;;;;;17.90;86.58;93952.13;1707744;83;20985;-57
2021/07/04 05:14:34;;;;;;;3.37;1.82;;;;;;;17.87;86.47;93957.33;1712668;82;21019;-58
2021/07/04 05:17:01;;;;;;;1.05;1.00;;;;;;;17.84;86.00;93958.98;1704502;82;21087;-58
2021/07/04 05:19:28;;;;;;;1.60;1.50;;;;;;;17.84;85.60;93954.80;1703392;82;21147;-57
2021/07/04 05:21:55;;;;;;;2.30;2.10;;;;;;;17.86;85.78;93959.96;1707576;83;20976;-59
2021/07/04 05:24:22;;;;;;;1.72;1.60;;;;;;;17.90;86.02;93959.08;1704845;83;21033;-57
2021/07/04 05:26:49;;;;;;;1.25;1.15;;;;;;;17.93;85.40;93962.84;1712424;82;21498;-58
2021/07/04 05:29:16;;;;;;;1.10;1.02;;;;;;;17.93;85.08;93971.20;1717566;82;21424;-58
2021/07/04 05:31:43;;;;;;;1.42;1.32;;;;;;;17.89;85.06;93964.52;1710185;83;21141;-59
2021/07/04 05:34:09;;;;;;;1.95;1.47;;;;;;;17.87;85.19;93964.91;1707711;83;20988;-58
2021/07/04 05:36:36;;;;;;;1.57;1.40;;;;;;;17.85;85.22;93964.66;1708546;83;21039;-57
2021/07/04 05:39:03;;;;;;;1.40;1.30;;;;;;;17.86;85.39;93970.34;1719966;83;20999;-59
2021/07/04 05:41:30;;;;;;;1.87;1.20;;;;;;;17.88;85.47;93972.75;1712440;83;21064;-57
2021/07/04 05:43:56;;;;;;;2.27;2.08;;;;;;;17.90;85.45;93978.56;1718248;83;21939;-58
2021/07/04 05:46:23;;;;;;;3.62;2.17;;;;;;;17.92;85.67;93978.03;1703032;82;21009;-57
2021/07/04 05:48:50;;;;;;;2.42;2.00;;;;;;;17.92;85.48;93990.55;1708452;83;21023;-59
2021/07/04 05:51:16;;;;;;;1.90;1.70;;;;;;;17.93;85.45;93984.48;1672378;82;21536;-57
2021/07/04 05:53:43;;;;;;;1.60;1.50;;;;;;;17.97;85.51;93982.84;1662547;83;21120;-57
2021/07/04 05:56:10;;;;;;;1.80;1.70;;;;;;;18.02;85.24;93983.44;1708852;83;21242;-58
2021/07/04 05:58:37;;;;;;;1.40;1.30;;;;;;;18.10;84.89;93989.97;1699971;82;20970;-58
2021/07/04 06:01:03;;;;;;;1.62;1.50;;;;;;;18.13;84.36;93984.76;1708002;82;21545;-58
2021/07/04 06:03:32;;;;;;;2.05;1.62;;;;;;;18.13;83.83;93983.48;1707602;83;21107;-59
2021/07/04 06:06:00;;;;;;;1.50;1.40;;;;;;;18.15;83.97;93986.42;1706477;82;21680;-58
2021/07/04 06:08:26;;;;;;;1.10;1.10;;;;;;;18.18;83.73;93986.78;1694306;82;21131;-59
2021/07/04 06:10:53;;;;;;;1.50;1.40;;;;;;;18.20;83.68;93985.75;1713222;83;21039;-60
2021/07/04 06:13:19;;;;;;;2.35;1.37;;;;;;;18.22;83.39;93989.39;1700117;82;20983;-59
2021/07/04 06:15:46;;;;;;;1.45;1.35;;;;;;;18.24;83.52;93993.19;1713747;83;21444;-58
2021/07/04 06:18:13;;;;;;;3.25;1.65;;;;;;;18.30;83.62;93992.54;1703171;83;21093;-59
2021/07/04 06:20:39;;;;;;;1.50;1.40;;;;;;;18.35;83.29;93992.40;1702037;82;21200;-59
2021/07/04 06:23:06;;;;;;;1.52;1.42;;;;;;;18.41;83.12;93996.67;1703345;83;20975;-59
2021/07/04 06:25:35;;;;;;;2.42;1.40;;;;;;;18.46;82.86;93995.87;1709257;82;21014;-59
2021/07/04 06:28:01;;;;;;;1.95;1.77;;;;;;;18.52;82.49;93995.84;1704512;82;21012;-59
2021/07/04 06:30:28;;;;;;;1.20;1.15;;;;;;;18.60;82.03;93997.56;1708922;83;20982;-58
2021/07/04 06:32:55;;;;;;;1.30;1.20;;;;;;;18.75;81.75;93995.80;1712995;83;21152;-60
2021/07/04 06:35:21;;;;;;;1.45;1.25;;;;;;;18.88;81.23;93996.73;1707665;83;21019;-60
2021/07/04 06:37:50;;;;;;;0.90;0.90;;;;;;;19.05;80.54;93995.20;1703929;83;20986;-59
2021/07/04 06:40:17;;;;;;;1.35;1.25;;;;;;;19.17;79.79;93993.21;1706260;83;21476;-60
2021/07/04 06:42:44;;;;;;;1.77;1.30;;;;;;;19.28;79.40;93990.96;1693287;83;21043;-60
2021/07/04 06:45:11;;;;;;;8.88;6.92;;;;;;;19.37;78.65;93996.22;1705643;83;21132;-59
2021/07/04 06:47:43;;;;;;;3.75;2.58;;;;;;;19.45;78.49;93993.72;1708178;83;21058;-59
2021/07/04 06:50:11;;;;;;;2.12;1.70;;;;;;;19.57;78.22;93996.50;1702810;82;21464;-58
2021/07/04 06:52:40;;;;;;;2.55;2.30;;;;;;;19.66;77.01;93994.77;1708839;83;21106;-59
2021/07/04 06:55:08;;;;;;;4.58;1.72;;;;;;;19.70;76.39;93991.70;1707629;83;21012;-58
2021/07/04 06:57:34;;;;;;;1.92;1.72;;;;;;;19.73;75.91;93987.20;1703057;82;21750;-58
2021/07/04 07:00:09;;;;;;;11.00;10.05;;;;;;;19.75;75.60;93986.03;1703317;83;21091;-60
2021/07/04 07:02:36;;;;;;;6.33;2.72;;;;;;;19.78;75.70;93984.23;1705029;82;21554;-59
2021/07/04 07:05:05;;;;;;;4.10;2.62;;;;;;;19.83;75.71;93982.78;1715885;83;21071;-59
2021/07/04 07:07:32;;;;;;;8.23;3.33;;;;;;;19.91;75.29;93979.50;1707680;83;21019;-59
2021/07/04 07:10:01;;;;;;;4.92;2.87;;;;;;;20.01;74.85;93982.06;1696778;82;21441;-58
2021/07/04 07:12:27;;;;;;;9.48;5.90;;;;;;;20.11;74.75;93986.01;1717107;83;20980;-60
2021/07/04 07:14:55;;;;;;;4.17;1.67;;;;;;;20.17;74.65;93990.25;1702934;83;20968;-59
2021/07/04 07:17:23;;;;;;;4.35;1.50;;;;;;;20.21;74.03;93994.89;1710134;83;21060;-59
2021/07/04 07:19:51;;;;;;;3.10;1.30;;;;;;;20.24;73.65;93986.87;1701071;82;21251;-59
2021/07/04 07:22:21;;;;;;;1.40;1.12;;;;;;;20.26;73.19;93985.70;1698913;82;21109;-59
2021/07/04 07:24:48;;;;;;;1.87;1.35;;;;;;;20.25;73.21;93982.03;1705134;83;20976;-60
2021/07/04 07:27:15;;;;;;;3.83;1.22;;;;;;;20.23;73.31;93985.34;1672513;83;21041;-60
2021/07/04 07:29:44;;;;;;;2.27;1.67;;;;;;;20.22;73.09;93975.45;1695119;82;21116;-58
2021/07/04 07:32:11;;;;;;;3.85;2.15;;;;;;;20.22;73.11;93983.83;1704319;82;21494;-59
2021/07/04 07:34:38;;;;;;;4.90;3.33;;;;;;;20.23;73.61;93980.41;1703698;83;21766;-58
2021/07/04 07:37:06;;;;;;;2.20;1.70;;;;;;;20.26;73.73;93974.53;1715477;82;21071;-60
2021/07/04 07:39:33;;;;;;;2.10;1.50;;;;;;;20.32;73.34;93984.20;1707858;83;20999;-59
2021/07/04 07:42:00;;;;;;;4.47;2.05;;;;;;;20.36;73.25;93980.49;1700062;82;21797;-59
2021/07/04 07:44:27;;;;;;;4.17;1.30;;;;;;;20.40;72.15;93974.70;1702648;83;20995;-61
2021/07/04 07:46:55;;;;;;;4.87;2.12;;;;;;;20.46;71.14;93974.63;1712551;83;21153;-59
2021/07/04 07:49:23;;;;;;;5.62;5.03;;;;;;;20.54;70.97;93980.47;1714245;83;21051;-60
2021/07/04 07:51:50;;;;;;;2.10;1.82;;;;;;;20.62;71.08;93984.81;1710954;83;21221;-59
2021/07/04 07:54:19;;;;;;;4.03;2.10;;;;;;;20.64;69.74;93980.84;1704446;82;21586;-59
2021/07/04 07:56:48;;;;;;;6.65;5.12;;;;;;;20.55;69.59;93979.84;1664669;84;21443;-58
2021/07/04 07:59:15;;;;;;;9.93;8.93;;;;;;;20.46;70.29;93979.58;1711187;82;21154;-57
2021/07/04 08:01:42;;;;;;;3.58;2.00;;;;;;;20.50;71.31;93973.05;1699788;82;21172;-58
2021/07/04 08:04:09;;;;;;;2.30;1.50;;;;;;;20.55;70.45;93972.20;1698789;82;21000;-59
2021/07/04 08:06:36;;;;;;;2.67;1.20;;;;;;;20.61;70.25;93970.73;1707587;84;20984;-59
2021/07/04 08:09:06;;;;;;;4.30;2.20;;;;;;;20.69;69.05;93966.02;1700837;82;21089;-59
2021/07/04 08:11:39;;;;;;;2.65;1.98;;;;;;;20.79;68.60;93957.36;1711149;82;20960;-59
2021/07/04 08:14:05;;;;;;;3.77;2.02;;;;;;;20.95;69.43;93963.38;1713393;83;21063;-58
2021/07/04 08:16:34;;;;;;;2.92;2.72;;;;;;;21.12;69.53;93962.45;1708742;83;21028;-59
2021/07/04 08:19:01;;;;;;;2.27;1.50;;;;;;;21.26;68.57;93957.01;1703745;83;21110;-60
2021/07/04 08:21:29;;;;;;;1.57;1.37;;;;;;;21.35;67.81;93966.38;1707574;83;21587;-61
2021/07/04 08:23:57;;;;;;;6.80;2.77;;;;;;;21.40;68.05;93961.31;1698011;82;21270;-60
2021/07/04 08:26:25;;;;;;;2.52;1.77;;;;;;;21.45;66.78;93953.48;1717224;83;20972;-62
2021/07/04 08:28:53;;;;;;;2.02;1.50;;;;;;;21.37;66.50;93951.20;1706048;83;21503;-60
2021/07/04 08:31:24;;;;;;;3.70;1.45;;;;;;;21.34;67.09;93962.84;1709959;83;21207;-61
2021/07/04 08:33:51;;;;;;;1.70;1.40;;;;;;;21.33;67.20;93963.36;1709663;82;21625;-61
2021/07/04 08:36:20;;;;;;;1.45;1.30;;;;;;;21.32;66.40;93966.79;1703802;82;21024;-59
2021/07/04 08:38:48;;;;;;;1.90;1.30;;;;;;;21.28;66.49;93962.16;1684350;83;20953;-60
2021/07/04 08:41:15;;;;;;;5.62;2.95;;;;;;;21.27;67.06;93964.11;1704064;83;21012;-59
2021/07/04 08:43:43;;;;;;;12.33;9.10;;;;;;;21.31;66.82;93967.34;1694036;82;21493;-59
2021/07/04 08:46:11;;;;;;;4.95;3.47;;;;;;;21.34;66.61;93968.44;1705433;82;21061;-60
2021/07/04 08:48:40;;;;;;;5.03;2.10;;;;;;;21.41;66.11;93966.39;1707209;82;21063;-59
2021/07/04 08:51:08;;;;;;;3.80;2.40;;;;;;;21.53;66.52;93965.55;1709105;82;21444;-59
2021/07/04 08:53:37;;;;;;;5.62;2.05;;;;;;;21.64;65.26;93974.52;1700159;83;20974;-59
2021/07/04 08:56:05;;;;;;;1.65;1.30;;;;;;;21.72;65.54;93973.23;1704930;82;21008;-60
2021/07/04 08:58:32;;;;;;;1.77;1.07;;;;;;;21.74;64.70;93973.45;1705318;83;21560;-60
2021/07/04 09:01:20;;;;;;;3.50;1.40;;;;;;;21.69;64.83;93975.71;1707185;82;21701;-59
2021/07/04 09:03:50;;;;;;;4.00;1.85;;;;;;;21.66;65.80;93973.99;1707795;83;21020;-59
2021/07/04 09:06:38;;;;;;;9.05;1.72;;;;;;;21.73;65.40;93973.34;1707573;83;21128;-60
2021/07/04 09:09:30;;;;;;;4.75;2.37;;;;;;;21.78;65.51;93973.23;1706308;83;21049;-60
2021/07/04 09:12:03;;;;;;;;;;;;;;;21.83;66.32;93980.03;1714315;82;21455;-59
2021/07/04 09:14:41;;;;;;;1.98;1.20;;;;;;;21.84;65.54;93974.54;1694174;82;21134;-60
2021/07/04 09:17:14;;;;;;;2.85;1.20;;;;;;;21.76;65.68;93980.66;1704166;83;20962;-57
2021/07/04 09:19:56;;;;;;;2.37;1.17;;;;;;;21.75;65.94;93980.55;1695983;82;21097;-59
2021/07/04 09:22:31;;;;;;;1.72;1.37;;;;;;;21.69;65.93;93979.91;1705581;83;21081;-59
2021/07/04 09:25:17;;;;;;;0.70;0.70;;;;;;;21.62;66.62;93981.94;1703382;83;20970;-59
2021/07/04 09:28:15;;;;;;;1.90;1.80;;;;;;;21.55;66.74;93981.16;1705147;81;21134;-60
2021/07/04 09:30:47;;;;;;;2.20;1.00;;;;;;;21.47;66.78;93981.69;1703402;83;21024;-60
2021/07/04 09:33:24;;;;;;;2.80;2.60;;;;;;;21.43;67.35;93979.20;1705867;83;21028;-58
2021/07/04 09:36:07;;;;;;;4.37;3.75;;;;;;;21.49;67.87;93977.71;1700978;82;21106;-58
2021/07/04 09:38:40;;;;;;;1.75;1.50;;;;;;;21.63;68.33;93977.88;1714895;83;21019;-59
2021/07/04 09:41:13;;;;;;;5.03;1.20;;;;;;;21.80;66.77;93979.72;1705930;83;21157;-59
2021/07/04 09:43:40;;;;;;;2.30;1.20;;;;;;;21.87;65.59;93972.80;1698757;82;21016;-58
2021/07/04 09:46:09;;;;;;;1.87;0.85;;;;;;;21.97;65.69;93973.11;1706582;83;21448;-59
2021/07/04 09:48:42;;;;;;;3.33;1.25;;;;;;;22.06;65.42;93969.23;1659607;82;20998;-59
2021/07/04 09:51:25;;;;;;;1.10;1.00;;;;;;;22.18;64.50;93968.48;1707510;82;21109;-59
2021/07/04 09:53:56;;;;;;;7.78;1.00;;;;;;;22.25;64.18;93961.48;1706144;82;21139;-57
2021/07/04 09:56:27;;;;;;;1.75;1.30;;;;;;;22.35;64.50;93956.28;1702979;82;21151;-57
2021/07/04 09:58:58;;;;;;;6.50;1.55;;;;;;;22.48;64.81;93961.12;1702655;83;21569;-58
2021/07/04 10:01:40;;;;;;;1.65;0.90;;;;;;;22.63;64.39;93952.23;1706278;82;21090;-59
2021/07/04 10:04:09;;;;;;;1.27;1.17;;;;;;;22.77;63.56;93952.30;1701510;83;21025;-58
2021/07/04 10:06:48;;;;;;;0.90;0.90;;;;;;;22.84;62.41;93948.06;1712890;83;21080;-59
2021/07/04 10:09:17;;;;;;;2.70;2.50;;;;;;;22.82;61.88;93945.05;1708603;83;21409;-60
2021/07/04 10:11:46;;;;;;;5.12;2.30;;;;;;;22.77;62.57;93948.72;1670923;84;21080;-61
2021/07/04 10:14:13;;;;;;;1.80;1.30;;;;;;;22.81;63.60;93943.55;1704765;82;21604;-59
2021/07/04 10:16:41;;;;;;;2.70;1.20;;;;;;;23.01;64.38;93943.55;1712385;83;21540;-59
2021/07/04 10:19:08;;;;;;;2.77;1.20;;;;;;;23.29;62.59;93942.25;1706428;83;21137;-59
2021/07/04 10:21:35;;;;;;;1.57;1.10;;;;;;;23.51;60.07;93940.27;1702098;83;20967;-59
2021/07/04 10:24:04;;;;;;;3.08;1.87;;;;;;;23.51;59.70;93942.31;1709098;83;21555;-59
2021/07/04 10:26:31;;;;;;;2.50;2.22;;;;;;;23.36;60.72;93945.77;1671029;82;21045;-59
2021/07/04 10:29:00;;;;;;;5.72;1.70;;;;;;;23.22;61.41;93949.94;1658907;83;20984;-59
2021/07/04 10:31:31;;;;;;;1.72;1.30;;;;;;;23.10;62.37;93948.70;1709097;83;21134;-58
2021/07/04 10:34:11;;;;;;;4.20;2.52;;;;;;;23.02;62.68;93947.86;1717216;81;21016;-59
2021/07/04 10:37:02;;;;;;;2.95;1.98;;;;;;;22.83;62.42;93957.78;1711183;83;21126;-58
2021/07/04 10:39:33;;;;;;;17.05;6.42;;;;;;;22.67;63.38;93962.45;1713148;83;21125;-58
2021/07/04 10:42:04;;;;;;;3.52;1.80;;;;;;;22.60;65.48;93949.11;1702445;83;20985;-59
2021/07/04 10:44:42;;;;;;;1.85;1.67;;;;;;;22.61;66.85;93950.63;1702671;82;21204;-60
2021/07/04 10:47:20;;;;;;;1.30;1.20;;;;;;;22.68;67.27;93942.92;1725597;83;21054;-59
2021/07/04 10:49:55;;;;;;;0.90;0.90;;;;;;;22.79;67.84;93950.33;1707707;83;20984;-59
2021/07/04 10:52:38;;;;;;;0.75;0.75;;;;;;;22.86;67.32;93943.40;1686281;83;21129;-59
2021/07/04 10:55:10;;;;;;;0.80;0.80;;;;;;;22.89;67.95;93945.14;1708539;83;21083;-59
2021/07/04 10:57:53;;;;;;;0.80;0.80;;;;;;;22.85;68.19;93941.89;1706793;82;21174;-59
2021/07/04 11:00:39;;;;;;;0.70;0.70;;;;;;;23.03;68.35;93933.93;1684517;84;21115;-59
2021/07/04 11:03:28;;;;;;;5.70;2.20;;;;;;;23.40;66.63;93937.00;1689884;83;21466;-58
2021/07/04 11:05:56;;;;;;;1.35;0.88;;;;;;;23.87;63.61;93937.53;1700505;82;21018;-60
2021/07/04 11:08:28;;;;;;;1.98;1.10;;;;;;;24.10;62.10;93935.72;1712233;82;21051;-59
2021/07/04 11:11:02;;;;;;;5.25;0.90;;;;;;;24.25;61.87;93932.23;1705750;83;21132;-59
2021/07/04 11:13:32;;;;;;;2.95;1.00;;;;;;;24.29;60.31;93928.39;1718904;82;21419;-59
2021/07/04 11:16:14;;;;;;;1.72;1.05;;;;;;;24.23;59.71;93937.66;1712381;83;21039;-58
2021/07/04 11:18:51;;;;;;;1.37;1.00;;;;;;;24.06;59.83;93933.16;1696877;83;21488;-57
2021/07/04 11:21:23;;;;;;;3.00;1.10;;;;;;;23.78;60.98;93934.55;1694791;82;21131;-58
2021/07/04 11:24:14;;;;;;;5.00;2.02;;;;;;;23.56;61.37;93942.17;1710039;82;21765;-58
2021/07/04 11:26:42;;;;;;;3.45;1.95;;;;;;;23.24;63.21;93954.35;1701118;83;21130;-59
2021/07/04 11:29:12;;;;;;;2.72;1.55;;;;;;;22.78;65.62;93950.99;1707679;82;21452;-59
2021/07/04 11:31:43;;;;;;;3.92;1.27;;;;;;;22.43;66.34;93945.93;1697985;82;21512;-59
2021/07/04 11:34:10;;;;;;;2.22;1.50;;;;;;;22.19;67.67;93940.57;1698954;82;20976;-59
2021/07/04 11:36:37;;;;;;;6.58;4.58;;;;;;;22.03;68.27;93955.67;1703118;82;21808;-59
2021/07/04 11:39:09;;;;;;;9.55;6.62;;;;;;;21.93;70.04;93955.89;1671406;83;21038;-58
2021/07/04 11:41:52;;;;;;;4.03;3.17;;;;;;;21.86;71.17;93962.15;1717014;82;21025;-59
2021/07/04 11:44:22;;;;;;;4.92;3.58;;;;;;;21.88;72.10;93956.76;1711660;83;21460;-59
2021/07/04 11:46:52;;;;;;;2.70;2.50;;;;;;;22.01;73.26;93958.90;1710485;83;21413;-58